sensor_id;sensor_type;location;lat;lon;timestamp;temperature;humidity
64652;HTU21D;51062;45.120;37.660;2023-09-18T00:00:53;13.50;58.63
64652;HTU21D;51062;45.120;37.660;2023-09-18T00:03:20;13.49;58.66
64652;HTU21D;51062;45.120;37.660;2023-09-18T00:05:48;13.45;58.71
64652;HTU21D;51062;45.120;37.660;2023-09-18T00:08:16;13.43;58.80
64652;HTU21D;51062;45.120;37.660;2023-09-18T00:10:43;13.39;58.80
64652;HTU21D;51062;45.120;37.660;2023-09-18T00:13:12;13.36;58.83
64652;HTU21D;51062;45.120;37.660;2023-09-18T00:15:39;13.33;58.83
64652;HTU21D;51062;45.120;37.660;2023-09-18T00:18:06;13.30;58.88
64652;HTU21D;51062;45.120;37.660;2023-09-18T00:20:33;13.26;58.92
64652;HTU21D;51062;45.120;37.660;2023-09-18T00:23:01;13.22;58.96
64652;HTU21D;51062;45.120;37.660;2023-09-18T00:25:27;13.19;59.03
64652;HTU21D;51062;45.120;37.660;2023-09-18T00:27:53;13.16;59.10
64652;HTU21D;51062;45.120;37.660;2023-09-18T00:30:19;13.10;59.16
64652;HTU21D;51062;45.120;37.660;2023-09-18T00:32:45;13.04;59.22
64652;HTU21D;51062;45.120;37.660;2023-09-18T00:35:12;12.99;59.31
64652;HTU21D;51062;45.120;37.660;2023-09-18T00:37:38;12.92;59.38
64652;HTU21D;51062;45.120;37.660;2023-09-18T00:40:06;12.86;59.47
64652;HTU21D;51062;45.120;37.660;2023-09-18T00:42:33;12.80;59.55
64652;HTU21D;51062;45.120;37.660;2023-09-18T00:44:59;12.76;59.66
64652;HTU21D;51062;45.120;37.660;2023-09-18T00:47:25;12.75;59.73
64652;HTU21D;51062;45.120;37.660;2023-09-18T00:49:52;12.74;59.77
64652;HTU21D;51062;45.120;37.660;2023-09-18T00:52:21;12.75;59.78
64652;HTU21D;51062;45.120;37.660;2023-09-18T00:54:49;12.75;59.78
64652;HTU21D;51062;45.120;37.660;2023-09-18T00:57:16;12.75;59.81
64652;HTU21D;51062;45.120;37.660;2023-09-18T00:59:43;12.75;59.83
64652;HTU21D;51062;45.120;37.660;2023-09-18T01:02:09;12.74;59.90
64652;HTU21D;51062;45.120;37.660;2023-09-18T01:04:37;12.75;59.93
64652;HTU21D;51062;45.120;37.660;2023-09-18T01:07:03;12.74;59.90
64652;HTU21D;51062;45.120;37.660;2023-09-18T01:09:31;12.75;59.93
64652;HTU21D;51062;45.120;37.660;2023-09-18T01:17:01;12.74;59.96
64652;HTU21D;51062;45.120;37.660;2023-09-18T01:19:38;12.72;59.99
64652;HTU21D;51062;45.120;37.660;2023-09-18T01:22:09;12.69;60.02
64652;HTU21D;51062;45.120;37.660;2023-09-18T01:24:36;12.67;60.02
64652;HTU21D;51062;45.120;37.660;2023-09-18T01:27:04;12.65;60.06
64652;HTU21D;51062;45.120;37.660;2023-09-18T01:29:31;12.62;60.10
64652;HTU21D;51062;45.120;37.660;2023-09-18T01:31:57;12.60;60.13
64652;HTU21D;51062;45.120;37.660;2023-09-18T01:34:35;12.59;60.25
64652;HTU21D;51062;45.120;37.660;2023-09-18T01:37:05;12.58;60.22
64652;HTU21D;51062;45.120;37.660;2023-09-18T01:39:34;12.58;60.22
64652;HTU21D;51062;45.120;37.660;2023-09-18T01:42:03;12.55;60.25
64652;HTU21D;51062;45.120;37.660;2023-09-18T01:44:34;12.53;60.24
64652;HTU21D;51062;45.120;37.660;2023-09-18T01:47:02;12.52;60.29
64652;HTU21D;51062;45.120;37.660;2023-09-18T01:49:36;12.50;60.35
64652;HTU21D;51062;45.120;37.660;2023-09-18T01:52:04;12.48;60.38
64652;HTU21D;51062;45.120;37.660;2023-09-18T01:54:31;12.48;60.40
64652;HTU21D;51062;45.120;37.660;2023-09-18T01:56:57;12.46;60.40
64652;HTU21D;51062;45.120;37.660;2023-09-18T01:59:24;12.45;60.43
64652;HTU21D;51062;45.120;37.660;2023-09-18T02:01:51;12.44;60.46
64652;HTU21D;51062;45.120;37.660;2023-09-18T02:04:18;12.43;60.48
64652;HTU21D;51062;45.120;37.660;2023-09-18T02:06:45;12.42;60.46
64652;HTU21D;51062;45.120;37.660;2023-09-18T02:09:11;12.41;60.47
64652;HTU21D;51062;45.120;37.660;2023-09-18T02:11:40;12.38;60.50
64652;HTU21D;51062;45.120;37.660;2023-09-18T02:14:07;12.38;60.51
64652;HTU21D;51062;45.120;37.660;2023-09-18T02:16:34;12.35;60.56
64652;HTU21D;51062;45.120;37.660;2023-09-18T02:19:00;12.35;60.57
64652;HTU21D;51062;45.120;37.660;2023-09-18T02:21:26;12.34;60.58
64652;HTU21D;51062;45.120;37.660;2023-09-18T02:23:53;12.32;60.63
64652;HTU21D;51062;45.120;37.660;2023-09-18T02:26:20;12.30;60.67
64652;HTU21D;51062;45.120;37.660;2023-09-18T02:28:46;12.27;60.71
64652;HTU21D;51062;45.120;37.660;2023-09-18T02:31:13;12.26;60.76
64652;HTU21D;51062;45.120;37.660;2023-09-18T02:33:40;12.23;60.81
64652;HTU21D;51062;45.120;37.660;2023-09-18T02:36:06;12.21;60.86
64652;HTU21D;51062;45.120;37.660;2023-09-18T02:38:33;12.19;60.87
64652;HTU21D;51062;45.120;37.660;2023-09-18T02:41:00;12.15;60.93
64652;HTU21D;51062;45.120;37.660;2023-09-18T02:43:26;12.14;60.93
64652;HTU21D;51062;45.120;37.660;2023-09-18T02:45:52;12.14;60.97
64652;HTU21D;51062;45.120;37.660;2023-09-18T02:48:19;12.11;61.00
64652;HTU21D;51062;45.120;37.660;2023-09-18T02:50:45;12.10;61.04
64652;HTU21D;51062;45.120;37.660;2023-09-18T02:53:20;12.05;61.12
64652;HTU21D;51062;45.120;37.660;2023-09-18T02:55:48;12.05;61.12
64652;HTU21D;51062;45.120;37.660;2023-09-18T02:58:14;12.03;61.17
64652;HTU21D;51062;45.120;37.660;2023-09-18T03:00:43;12.02;61.20
64652;HTU21D;51062;45.120;37.660;2023-09-18T03:03:10;12.01;61.24
64652;HTU21D;51062;45.120;37.660;2023-09-18T03:05:36;12.01;61.23
64652;HTU21D;51062;45.120;37.660;2023-09-18T03:08:03;12.01;61.25
64652;HTU21D;51062;45.120;37.660;2023-09-18T03:10:36;12.02;61.34
64652;HTU21D;51062;45.120;37.660;2023-09-18T03:13:03;12.01;61.33
64652;HTU21D;51062;45.120;37.660;2023-09-18T03:15:30;12.03;61.38
64652;HTU21D;51062;45.120;37.660;2023-09-18T03:17:57;12.08;61.42
64652;HTU21D;51062;45.120;37.660;2023-09-18T03:20:28;12.18;61.45
64652;HTU21D;51062;45.120;37.660;2023-09-18T03:22:57;12.33;61.44
64652;HTU21D;51062;45.120;37.660;2023-09-18T03:25:23;12.51;61.38
64652;HTU21D;51062;45.120;37.660;2023-09-18T03:27:55;12.75;61.28
64652;HTU21D;51062;45.120;37.660;2023-09-18T03:30:25;13.03;61.14
64652;HTU21D;51062;45.120;37.660;2023-09-18T03:32:52;13.36;60.89
64652;HTU21D;51062;45.120;37.660;2023-09-18T03:35:20;13.68;60.60
64652;HTU21D;51062;45.120;37.660;2023-09-18T03:37:52;13.99;60.26
64652;HTU21D;51062;45.120;37.660;2023-09-18T03:40:20;14.34;59.96
64652;HTU21D;51062;45.120;37.660;2023-09-18T03:42:46;14.70;59.87
64652;HTU21D;51062;45.120;37.660;2023-09-18T03:45:13;15.08;59.89
64652;HTU21D;51062;45.120;37.660;2023-09-18T03:47:40;15.48;59.87
64652;HTU21D;51062;45.120;37.660;2023-09-18T03:50:10;15.90;59.68
64652;HTU21D;51062;45.120;37.660;2023-09-18T03:52:37;16.25;59.44
64652;HTU21D;51062;45.120;37.660;2023-09-18T03:55:05;16.57;59.35
64652;HTU21D;51062;45.120;37.660;2023-09-18T03:57:32;16.90;59.14
64652;HTU21D;51062;45.120;37.660;2023-09-18T03:59:58;17.24;58.81
64652;HTU21D;51062;45.120;37.660;2023-09-18T04:02:25;17.54;58.58
64652;HTU21D;51062;45.120;37.660;2023-09-18T04:04:53;17.78;58.41
64652;HTU21D;51062;45.120;37.660;2023-09-18T04:07:19;18.07;58.27
64652;HTU21D;51062;45.120;37.660;2023-09-18T04:09:46;18.29;57.96
64652;HTU21D;51062;45.120;37.660;2023-09-18T04:12:12;18.50;57.84
64652;HTU21D;51062;45.120;37.660;2023-09-18T04:14:39;18.69;57.64
64652;HTU21D;51062;45.120;37.660;2023-09-18T04:17:05;18.89;57.58
64652;HTU21D;51062;45.120;37.660;2023-09-18T04:19:31;19.15;57.44
64652;HTU21D;51062;45.120;37.660;2023-09-18T04:21:57;19.44;57.07
64652;HTU21D;51062;45.120;37.660;2023-09-18T04:24:24;19.65;56.93
64652;HTU21D;51062;45.120;37.660;2023-09-18T04:26:51;19.82;56.68
64652;HTU21D;51062;45.120;37.660;2023-09-18T04:29:18;20.11;56.52
64652;HTU21D;51062;45.120;37.660;2023-09-18T04:31:44;20.41;56.28
64652;HTU21D;51062;45.120;37.660;2023-09-18T04:34:11;20.72;55.97
64652;HTU21D;51062;45.120;37.660;2023-09-18T04:36:38;20.93;55.59
64652;HTU21D;51062;45.120;37.660;2023-09-18T04:39:05;21.24;55.25
64652;HTU21D;51062;45.120;37.660;2023-09-18T04:41:33;21.36;54.81
64652;HTU21D;51062;45.120;37.660;2023-09-18T04:44:02;21.39;54.81
64652;HTU21D;51062;45.120;37.660;2023-09-18T04:46:31;21.58;54.63
64652;HTU21D;51062;45.120;37.660;2023-09-18T04:48:57;21.70;54.43
64652;HTU21D;51062;45.120;37.660;2023-09-18T04:51:23;21.89;54.33
64652;HTU21D;51062;45.120;37.660;2023-09-18T04:53:49;22.20;53.91
64652;HTU21D;51062;45.120;37.660;2023-09-18T04:56:17;22.44;53.65
64652;HTU21D;51062;45.120;37.660;2023-09-18T04:58:44;22.71;53.39
64652;HTU21D;51062;45.120;37.660;2023-09-18T05:01:10;22.93;53.10
64652;HTU21D;51062;45.120;37.660;2023-09-18T05:03:38;23.13;52.73
64652;HTU21D;51062;45.120;37.660;2023-09-18T05:06:05;23.44;52.33
64652;HTU21D;51062;45.120;37.660;2023-09-18T05:08:31;23.82;51.92
64652;HTU21D;51062;45.120;37.660;2023-09-18T05:10:57;24.25;51.25
64652;HTU21D;51062;45.120;37.660;2023-09-18T05:13:23;24.40;50.72
64652;HTU21D;51062;45.120;37.660;2023-09-18T05:15:50;24.43;50.57
64652;HTU21D;51062;45.120;37.660;2023-09-18T05:18:16;24.63;50.50
64652;HTU21D;51062;45.120;37.660;2023-09-18T05:20:42;24.85;50.31
64652;HTU21D;51062;45.120;37.660;2023-09-18T05:23:08;25.04;49.89
64652;HTU21D;51062;45.120;37.660;2023-09-18T05:25:34;25.05;49.69
64652;HTU21D;51062;45.120;37.660;2023-09-18T05:28:04;24.89;49.53
64652;HTU21D;51062;45.120;37.660;2023-09-18T05:30:33;24.74;49.85
64652;HTU21D;51062;45.120;37.660;2023-09-18T05:33:02;24.93;49.75
64652;HTU21D;51062;45.120;37.660;2023-09-18T05:35:31;25.47;49.05
64652;HTU21D;51062;45.120;37.660;2023-09-18T05:37:58;25.88;48.58
64652;HTU21D;51062;45.120;37.660;2023-09-18T05:40:25;26.03;47.94
64652;HTU21D;51062;45.120;37.660;2023-09-18T05:42:53;25.97;48.08
64652;HTU21D;51062;45.120;37.660;2023-09-18T05:45:19;26.04;47.80
64652;HTU21D;51062;45.120;37.660;2023-09-18T05:47:47;25.96;47.63
64652;HTU21D;51062;45.120;37.660;2023-09-18T05:50:13;25.81;47.50
64652;HTU21D;51062;45.120;37.660;2023-09-18T05:52:42;25.83;47.72
64652;HTU21D;51062;45.120;37.660;2023-09-18T05:55:08;25.93;47.48
64652;HTU21D;51062;45.120;37.660;2023-09-18T05:57:35;25.94;47.39
64652;HTU21D;51062;45.120;37.660;2023-09-18T06:00:02;25.91;47.25
64652;HTU21D;51062;45.120;37.660;2023-09-18T06:02:37;26.06;46.95
64652;HTU21D;51062;45.120;37.660;2023-09-18T06:05:04;26.26;46.59
64652;HTU21D;51062;45.120;37.660;2023-09-18T06:07:31;26.41;46.38
64652;HTU21D;51062;45.120;37.660;2023-09-18T06:09:58;26.55;46.24
64652;HTU21D;51062;45.120;37.660;2023-09-18T06:12:24;26.75;45.91
64652;HTU21D;51062;45.120;37.660;2023-09-18T06:14:52;26.76;45.58
64652;HTU21D;51062;45.120;37.660;2023-09-18T06:17:18;26.56;45.75
64652;HTU21D;51062;45.120;37.660;2023-09-18T06:19:45;26.61;45.70
64652;HTU21D;51062;45.120;37.660;2023-09-18T06:22:12;26.65;45.35
64652;HTU21D;51062;45.120;37.660;2023-09-18T06:24:39;26.75;45.16
64652;HTU21D;51062;45.120;37.660;2023-09-18T06:27:05;26.95;44.93
64652;HTU21D;51062;45.120;37.660;2023-09-18T06:29:34;26.81;44.24
64652;HTU21D;51062;45.120;37.660;2023-09-18T06:32:01;26.70;44.47
64652;HTU21D;51062;45.120;37.660;2023-09-18T06:34:27;26.85;44.34
64652;HTU21D;51062;45.120;37.660;2023-09-18T06:36:56;27.05;43.73
64652;HTU21D;51062;45.120;37.660;2023-09-18T06:39:22;27.05;43.63
64652;HTU21D;51062;45.120;37.660;2023-09-18T06:41:49;26.96;43.76
64652;HTU21D;51062;45.120;37.660;2023-09-18T06:44:18;27.26;43.76
64652;HTU21D;51062;45.120;37.660;2023-09-18T06:46:44;27.45;43.55
64652;HTU21D;51062;45.120;37.660;2023-09-18T06:49:10;27.66;43.14
64652;HTU21D;51062;45.120;37.660;2023-09-18T06:51:36;27.68;42.79
64652;HTU21D;51062;45.120;37.660;2023-09-18T06:54:02;27.51;42.67
64652;HTU21D;51062;45.120;37.660;2023-09-18T06:56:29;27.49;42.80
64652;HTU21D;51062;45.120;37.660;2023-09-18T06:58:55;27.45;43.01
64652;HTU21D;51062;45.120;37.660;2023-09-18T07:01:22;27.52;42.74
64652;HTU21D;51062;45.120;37.660;2023-09-18T07:03:50;27.58;42.42
64652;HTU21D;51062;45.120;37.660;2023-09-18T07:06:16;27.59;42.26
64652;HTU21D;51062;45.120;37.660;2023-09-18T07:08:44;27.57;42.03
64652;HTU21D;51062;45.120;37.660;2023-09-18T07:11:10;27.52;42.11
64652;HTU21D;51062;45.120;37.660;2023-09-18T07:13:40;27.57;42.00
64652;HTU21D;51062;45.120;37.660;2023-09-18T07:16:06;27.50;41.84
64652;HTU21D;51062;45.120;37.660;2023-09-18T07:18:32;27.51;41.97
64652;HTU21D;51062;45.120;37.660;2023-09-18T07:20:58;27.72;41.79
64652;HTU21D;51062;45.120;37.660;2023-09-18T07:23:24;27.86;41.48
64652;HTU21D;51062;45.120;37.660;2023-09-18T07:25:50;27.85;41.21
64652;HTU21D;51062;45.120;37.660;2023-09-18T07:28:17;27.80;41.29
64652;HTU21D;51062;45.120;37.660;2023-09-18T07:30:45;27.72;40.70
64652;HTU21D;51062;45.120;37.660;2023-09-18T07:33:12;27.66;40.96
64652;HTU21D;51062;45.120;37.660;2023-09-18T07:35:40;27.65;41.05
64652;HTU21D;51062;45.120;37.660;2023-09-18T07:38:07;27.69;40.85
64652;HTU21D;51062;45.120;37.660;2023-09-18T07:40:33;27.74;40.79
64652;HTU21D;51062;45.120;37.660;2023-09-18T07:42:59;27.76;40.63
64652;HTU21D;51062;45.120;37.660;2023-09-18T07:45:25;27.84;40.68
64652;HTU21D;51062;45.120;37.660;2023-09-18T07:47:52;28.02;40.18
64652;HTU21D;51062;45.120;37.660;2023-09-18T07:50:18;28.15;39.75
64652;HTU21D;51062;45.120;37.660;2023-09-18T07:52:44;28.20;39.69
64652;HTU21D;51062;45.120;37.660;2023-09-18T07:55:10;28.24;39.30
64652;HTU21D;51062;45.120;37.660;2023-09-18T07:57:36;28.06;39.15
64652;HTU21D;51062;45.120;37.660;2023-09-18T08:00:05;27.82;39.06
64652;HTU21D;51062;45.120;37.660;2023-09-18T08:02:41;27.64;39.21
64652;HTU21D;51062;45.120;37.660;2023-09-18T08:05:08;27.52;39.00
64652;HTU21D;51062;45.120;37.660;2023-09-18T08:07:37;27.31;38.94
64652;HTU21D;51062;45.120;37.660;2023-09-18T08:10:04;26.97;39.02
64652;HTU21D;51062;45.120;37.660;2023-09-18T08:12:37;26.40;39.56
64652;HTU21D;51062;45.120;37.660;2023-09-18T08:15:03;25.89;40.01
64652;HTU21D;51062;45.120;37.660;2023-09-18T08:17:31;25.38;40.62
64652;HTU21D;51062;45.120;37.660;2023-09-18T08:19:57;25.02;41.11
64652;HTU21D;51062;45.120;37.660;2023-09-18T08:22:24;24.79;41.19
64652;HTU21D;51062;45.120;37.660;2023-09-18T08:24:50;24.57;41.47
64652;HTU21D;51062;45.120;37.660;2023-09-18T08:27:19;24.45;41.71
64652;HTU21D;51062;45.120;37.660;2023-09-18T08:29:46;24.40;41.88
64652;HTU21D;51062;45.120;37.660;2023-09-18T08:32:12;24.34;41.49
64652;HTU21D;51062;45.120;37.660;2023-09-18T08:34:38;24.29;41.52
64652;HTU21D;51062;45.120;37.660;2023-09-18T08:37:04;24.25;41.50
64652;HTU21D;51062;45.120;37.660;2023-09-18T08:39:30;24.23;41.67
64652;HTU21D;51062;45.120;37.660;2023-09-18T08:42:02;24.25;41.55
64652;HTU21D;51062;45.120;37.660;2023-09-18T08:44:28;24.23;41.69
64652;HTU21D;51062;45.120;37.660;2023-09-18T08:46:55;24.26;41.71
64652;HTU21D;51062;45.120;37.660;2023-09-18T08:49:26;24.29;41.65
64652;HTU21D;51062;45.120;37.660;2023-09-18T08:51:55;24.29;41.37
64652;HTU21D;51062;45.120;37.660;2023-09-18T08:54:22;24.31;41.45
64652;HTU21D;51062;45.120;37.660;2023-09-18T08:56:52;24.34;41.30
64652;HTU21D;51062;45.120;37.660;2023-09-18T08:59:21;24.35;41.30
64652;HTU21D;51062;45.120;37.660;2023-09-18T09:01:48;24.40;41.38
64652;HTU21D;51062;45.120;37.660;2023-09-18T09:04:14;24.44;41.29
64652;HTU21D;51062;45.120;37.660;2023-09-18T09:06:40;24.45;41.37
64652;HTU21D;51062;45.120;37.660;2023-09-18T09:09:06;24.51;41.11
64652;HTU21D;51062;45.120;37.660;2023-09-18T09:11:34;24.54;41.09
64652;HTU21D;51062;45.120;37.660;2023-09-18T09:14:11;24.54;41.00
64652;HTU21D;51062;45.120;37.660;2023-09-18T09:16:46;24.57;40.87
64652;HTU21D;51062;45.120;37.660;2023-09-18T09:19:13;24.58;40.97
64652;HTU21D;51062;45.120;37.660;2023-09-18T09:21:41;24.60;40.91
64652;HTU21D;51062;45.120;37.660;2023-09-18T09:24:12;24.62;40.78
64652;HTU21D;51062;45.120;37.660;2023-09-18T09:26:41;24.65;40.79
64652;HTU21D;51062;45.120;37.660;2023-09-18T09:29:34;24.66;40.62
64652;HTU21D;51062;45.120;37.660;2023-09-18T09:32:20;24.69;40.75
64652;HTU21D;51062;45.120;37.660;2023-09-18T09:34:46;24.71;40.74
64652;HTU21D;51062;45.120;37.660;2023-09-18T09:37:13;24.73;40.81
64652;HTU21D;51062;45.120;37.660;2023-09-18T09:39:49;24.78;40.65
64652;HTU21D;51062;45.120;37.660;2023-09-18T09:42:20;24.77;40.51
64652;HTU21D;51062;45.120;37.660;2023-09-18T09:45:02;24.77;40.41
64652;HTU21D;51062;45.120;37.660;2023-09-18T09:47:35;24.78;40.33
64652;HTU21D;51062;45.120;37.660;2023-09-18T09:50:11;24.79;40.27
64652;HTU21D;51062;45.120;37.660;2023-09-18T09:52:47;24.79;39.91
64652;HTU21D;51062;45.120;37.660;2023-09-18T09:58:04;24.73;39.88
64652;HTU21D;51062;45.120;37.660;2023-09-18T10:00:37;24.75;39.83
64652;HTU21D;51062;45.120;37.660;2023-09-18T10:03:16;24.79;39.84
64652;HTU21D;51062;45.120;37.660;2023-09-18T10:05:45;24.78;40.00
64652;HTU21D;51062;45.120;37.660;2023-09-18T10:08:13;24.83;39.85
64652;HTU21D;51062;45.120;37.660;2023-09-18T10:10:53;24.85;39.88
64652;HTU21D;51062;45.120;37.660;2023-09-18T10:13:25;24.88;39.88
64652;HTU21D;51062;45.120;37.660;2023-09-18T10:15:53;24.90;39.90
64652;HTU21D;51062;45.120;37.660;2023-09-18T10:18:28;24.91;39.85
64652;HTU21D;51062;45.120;37.660;2023-09-18T10:21:06;24.92;39.82
64652;HTU21D;51062;45.120;37.660;2023-09-18T10:26:22;24.98;39.56
64652;HTU21D;51062;45.120;37.660;2023-09-18T10:28:52;25.01;39.01
64652;HTU21D;51062;45.120;37.660;2023-09-18T10:31:22;25.01;39.01
64652;HTU21D;51062;45.120;37.660;2023-09-18T10:33:49;25.06;39.07
64652;HTU21D;51062;45.120;37.660;2023-09-18T10:36:17;25.12;39.03
64652;HTU21D;51062;45.120;37.660;2023-09-18T10:38:46;25.13;38.86
64652;HTU21D;51062;45.120;37.660;2023-09-18T10:41:16;25.13;38.82
64652;HTU21D;51062;45.120;37.660;2023-09-18T10:43:46;25.14;39.02
64652;HTU21D;51062;45.120;37.660;2023-09-18T10:46:14;25.15;39.01
64652;HTU21D;51062;45.120;37.660;2023-09-18T10:48:42;25.15;38.39
64652;HTU21D;51062;45.120;37.660;2023-09-18T10:51:10;25.09;38.33
64652;HTU21D;51062;45.120;37.660;2023-09-18T10:53:37;25.10;38.56
64652;HTU21D;51062;45.120;37.660;2023-09-18T10:56:03;25.15;38.62
64652;HTU21D;51062;45.120;37.660;2023-09-18T10:58:33;25.19;38.60
64652;HTU21D;51062;45.120;37.660;2023-09-18T11:01:11;25.17;38.45
64652;HTU21D;51062;45.120;37.660;2023-09-18T11:03:38;25.13;38.63
64652;HTU21D;51062;45.120;37.660;2023-09-18T11:06:07;25.14;38.68
64652;HTU21D;51062;45.120;37.660;2023-09-18T11:08:43;25.17;38.63
64652;HTU21D;51062;45.120;37.660;2023-09-18T11:11:12;25.17;38.32
64652;HTU21D;51062;45.120;37.660;2023-09-18T11:13:45;25.16;38.51
64652;HTU21D;51062;45.120;37.660;2023-09-18T11:21:29;25.21;38.28
64652;HTU21D;51062;45.120;37.660;2023-09-18T11:24:02;25.20;38.31
64652;HTU21D;51062;45.120;37.660;2023-09-18T11:26:33;25.18;38.25
64652;HTU21D;51062;45.120;37.660;2023-09-18T11:29:05;25.14;38.30
64652;HTU21D;51062;45.120;37.660;2023-09-18T11:32:01;25.12;38.03
64652;HTU21D;51062;45.120;37.660;2023-09-18T11:34:30;25.12;38.27
64652;HTU21D;51062;45.120;37.660;2023-09-18T11:36:58;25.14;38.27
64652;HTU21D;51062;45.120;37.660;2023-09-18T11:39:41;25.15;38.06
64652;HTU21D;51062;45.120;37.660;2023-09-18T11:42:17;25.17;38.08
64652;HTU21D;51062;45.120;37.660;2023-09-18T11:44:45;25.17;38.02
64652;HTU21D;51062;45.120;37.660;2023-09-18T11:47:16;25.18;37.79
64652;HTU21D;51062;45.120;37.660;2023-09-18T11:49:58;25.21;37.65
64652;HTU21D;51062;45.120;37.660;2023-09-18T11:52:30;25.20;37.78
64652;HTU21D;51062;45.120;37.660;2023-09-18T11:54:58;25.19;37.66
64652;HTU21D;51062;45.120;37.660;2023-09-18T11:57:26;25.20;37.71
64652;HTU21D;51062;45.120;37.660;2023-09-18T11:59:54;25.20;37.78
64652;HTU21D;51062;45.120;37.660;2023-09-18T12:02:32;25.21;37.59
64652;HTU21D;51062;45.120;37.660;2023-09-18T12:05:14;25.19;37.75
64652;HTU21D;51062;45.120;37.660;2023-09-18T12:07:46;25.16;37.59
64652;HTU21D;51062;45.120;37.660;2023-09-18T12:10:14;25.14;37.62
64652;HTU21D;51062;45.120;37.660;2023-09-18T12:12:44;25.13;37.56
64652;HTU21D;51062;45.120;37.660;2023-09-18T12:15:12;25.14;37.60
64652;HTU21D;51062;45.120;37.660;2023-09-18T12:17:38;25.13;37.69
64652;HTU21D;51062;45.120;37.660;2023-09-18T12:20:05;25.10;37.74
64652;HTU21D;51062;45.120;37.660;2023-09-18T12:22:31;25.10;37.56
64652;HTU21D;51062;45.120;37.660;2023-09-18T12:25:12;25.09;37.44
64652;HTU21D;51062;45.120;37.660;2023-09-18T12:27:41;25.07;37.24
64652;HTU21D;51062;45.120;37.660;2023-09-18T12:30:08;25.05;37.39
64652;HTU21D;51062;45.120;37.660;2023-09-18T12:32:39;25.05;37.36
64652;HTU21D;51062;45.120;37.660;2023-09-18T12:35:07;25.03;37.34
64652;HTU21D;51062;45.120;37.660;2023-09-18T12:37:38;25.03;37.46
64652;HTU21D;51062;45.120;37.660;2023-09-18T12:40:07;25.02;37.52
64652;HTU21D;51062;45.120;37.660;2023-09-18T12:42:37;25.01;37.41
64652;HTU21D;51062;45.120;37.660;2023-09-18T12:45:08;25.00;37.40
64652;HTU21D;51062;45.120;37.660;2023-09-18T12:47:35;24.99;37.38
64652;HTU21D;51062;45.120;37.660;2023-09-18T12:50:07;24.97;37.24
64652;HTU21D;51062;45.120;37.660;2023-09-18T12:52:36;24.98;37.29
64652;HTU21D;51062;45.120;37.660;2023-09-18T12:55:02;24.95;37.22
64652;HTU21D;51062;45.120;37.660;2023-09-18T12:57:32;24.94;37.30
64652;HTU21D;51062;45.120;37.660;2023-09-18T12:59:58;24.94;37.09
64652;HTU21D;51062;45.120;37.660;2023-09-18T13:02:25;24.92;37.10
64652;HTU21D;51062;45.120;37.660;2023-09-18T13:04:57;24.91;37.14
64652;HTU21D;51062;45.120;37.660;2023-09-18T13:07:24;24.90;37.27
64652;HTU21D;51062;45.120;37.660;2023-09-18T13:10:05;24.90;37.24
64652;HTU21D;51062;45.120;37.660;2023-09-18T13:12:52;24.88;37.21
64652;HTU21D;51062;45.120;37.660;2023-09-18T13:15:31;24.86;37.21
64652;HTU21D;51062;45.120;37.660;2023-09-18T13:17:59;24.84;37.24
64652;HTU21D;51062;45.120;37.660;2023-09-18T13:20:28;24.83;37.17
64652;HTU21D;51062;45.120;37.660;2023-09-18T13:23:00;24.79;37.23
64652;HTU21D;51062;45.120;37.660;2023-09-18T13:25:39;24.75;37.11
64652;HTU21D;51062;45.120;37.660;2023-09-18T13:28:10;24.73;37.25
64652;HTU21D;51062;45.120;37.660;2023-09-18T13:30:39;24.71;37.33
64652;HTU21D;51062;45.120;37.660;2023-09-18T13:33:08;24.70;37.24
64652;HTU21D;51062;45.120;37.660;2023-09-18T13:35:37;24.70;37.05
64652;HTU21D;51062;45.120;37.660;2023-09-18T13:38:04;24.68;37.16
64652;HTU21D;51062;45.120;37.660;2023-09-18T13:40:35;24.68;37.00
64652;HTU21D;51062;45.120;37.660;2023-09-18T13:43:05;24.64;37.02
64652;HTU21D;51062;45.120;37.660;2023-09-18T13:45:32;24.64;37.19
64652;HTU21D;51062;45.120;37.660;2023-09-18T13:47:58;24.63;37.08
64652;HTU21D;51062;45.120;37.660;2023-09-18T13:50:25;24.62;37.16
64652;HTU21D;51062;45.120;37.660;2023-09-18T13:52:51;24.59;37.22
64652;HTU21D;51062;45.120;37.660;2023-09-18T13:55:17;24.55;37.26
64652;HTU21D;51062;45.120;37.660;2023-09-18T13:57:43;24.50;37.35
64652;HTU21D;51062;45.120;37.660;2023-09-18T14:00:10;24.46;37.27
64652;HTU21D;51062;45.120;37.660;2023-09-18T14:02:40;24.44;37.36
64652;HTU21D;51062;45.120;37.660;2023-09-18T14:05:08;24.42;37.22
64652;HTU21D;51062;45.120;37.660;2023-09-18T14:07:35;24.40;37.27
64652;HTU21D;51062;45.120;37.660;2023-09-18T14:10:09;24.39;37.17
64652;HTU21D;51062;45.120;37.660;2023-09-18T14:12:40;24.34;37.30
64652;HTU21D;51062;45.120;37.660;2023-09-18T14:15:06;24.32;37.24
64652;HTU21D;51062;45.120;37.660;2023-09-18T14:17:34;24.30;37.37
64652;HTU21D;51062;45.120;37.660;2023-09-18T14:20:01;24.25;37.40
64652;HTU21D;51062;45.120;37.660;2023-09-18T14:22:33;24.20;37.50
64652;HTU21D;51062;45.120;37.660;2023-09-18T14:24:59;24.14;37.61
64652;HTU21D;51062;45.120;37.660;2023-09-18T14:27:25;24.11;37.63
64652;HTU21D;51062;45.120;37.660;2023-09-18T14:29:52;24.04;37.71
64652;HTU21D;51062;45.120;37.660;2023-09-18T14:32:18;24.01;37.74
64652;HTU21D;51062;45.120;37.660;2023-09-18T14:34:44;23.98;37.75
64652;HTU21D;51062;45.120;37.660;2023-09-18T14:37:11;23.94;37.82
64652;HTU21D;51062;45.120;37.660;2023-09-18T14:39:37;23.90;37.85
64652;HTU21D;51062;45.120;37.660;2023-09-18T14:42:03;23.85;37.91
64652;HTU21D;51062;45.120;37.660;2023-09-18T14:44:29;23.81;37.94
64652;HTU21D;51062;45.120;37.660;2023-09-18T14:46:56;23.74;37.98
64652;HTU21D;51062;45.120;37.660;2023-09-18T14:49:22;23.70;38.00
64652;HTU21D;51062;45.120;37.660;2023-09-18T14:51:48;23.65;38.07
64652;HTU21D;51062;45.120;37.660;2023-09-18T14:54:20;23.59;38.14
64652;HTU21D;51062;45.120;37.660;2023-09-18T14:56:46;23.51;38.25
64652;HTU21D;51062;45.120;37.660;2023-09-18T14:59:13;23.44;38.34
64652;HTU21D;51062;45.120;37.660;2023-09-18T15:01:39;23.37;38.42
64652;HTU21D;51062;45.120;37.660;2023-09-18T15:04:09;23.27;38.53
64652;HTU21D;51062;45.120;37.660;2023-09-18T15:06:35;23.17;38.64
64652;HTU21D;51062;45.120;37.660;2023-09-18T15:09:01;23.07;38.77
64652;HTU21D;51062;45.120;37.660;2023-09-18T15:11:28;22.96;38.88
64652;HTU21D;51062;45.120;37.660;2023-09-18T15:13:55;22.90;38.97
64652;HTU21D;51062;45.120;37.660;2023-09-18T15:16:21;22.83;39.04
64652;HTU21D;51062;45.120;37.660;2023-09-18T15:18:47;22.71;39.13
64652;HTU21D;51062;45.120;37.660;2023-09-18T15:21:15;22.63;39.22
64652;HTU21D;51062;45.120;37.660;2023-09-18T15:23:41;22.53;39.34
64652;HTU21D;51062;45.120;37.660;2023-09-18T15:26:07;22.42;39.44